createdAt,value
2023-02-16T00:01:54.772Z,78.22
2023-02-16T00:04:22.535Z,78.24
2023-02-16T00:06:49.617Z,79.52
2023-02-16T00:09:16.734Z,78.66
2023-02-16T00:12:02.546Z,79.63
2023-02-16T00:14:29.046Z,80.38
2023-02-16T00:16:57.250Z,80.49
2023-02-16T00:19:28.010Z,80.92
2023-02-16T00:21:56.750Z,80.39
2023-02-16T00:24:24.682Z,81.08
2023-02-16T00:26:51.225Z,80.78
2023-02-16T00:29:21.190Z,80.18
2023-02-16T00:31:48.006Z,81.04
2023-02-16T00:34:26.850Z,80.96
2023-02-16T00:36:53.485Z,81.79
2023-02-16T00:39:19.936Z,82.20
2023-02-16T00:41:52.367Z,80.95
2023-02-16T00:44:29.993Z,80.00
2023-02-16T00:46:56.843Z,79.97
2023-02-16T00:49:23.347Z,81.12
2023-02-16T00:51:50.426Z,79.48
2023-02-16T00:54:16.909Z,78.22
2023-02-16T00:56:43.579Z,78.82
2023-02-16T00:59:16.230Z,79.63
2023-02-16T01:01:42.957Z,78.87
2023-02-16T01:04:13.853Z,78.64
2023-02-16T01:06:58.966Z,78.11
2023-02-16T01:09:44.018Z,78.97
2023-02-16T01:12:15.317Z,80.33
2023-02-16T01:14:52.397Z,80.66
2023-02-16T01:17:18.937Z,80.58
2023-02-16T01:19:45.401Z,81.03
2023-02-16T01:22:11.875Z,80.31
2023-02-16T01:24:38.463Z,79.64
2023-02-16T01:27:04.916Z,81.44
2023-02-16T01:29:31.365Z,78.67
2023-02-16T01:31:57.970Z,78.16
2023-02-16T01:34:25.482Z,78.83
2023-02-16T01:36:52.084Z,78.96
2023-02-16T01:39:20.680Z,77.65
2023-02-16T01:41:56.550Z,78.29
2023-02-16T01:44:47.007Z,78.13
2023-02-16T01:47:52.050Z,77.16
2023-02-16T01:50:27.274Z,78.47
2023-02-16T01:53:19.894Z,77.68
2023-02-16T01:55:48.205Z,77.06
2023-02-16T01:58:38.662Z,77.95
2023-02-16T02:01:05.352Z,77.54
2023-02-16T02:03:53.174Z,76.02
2023-02-16T02:06:31.149Z,75.90
2023-02-16T02:09:03.920Z,75.93
2023-02-16T02:11:34.616Z,76.52
2023-02-16T02:14:20.094Z,77.30
2023-02-16T02:16:59.650Z,77.10
2023-02-16T02:19:26.263Z,76.83
2023-02-16T02:22:49.930Z,76.95
2023-02-16T02:25:47.964Z,76.31
2023-02-16T02:28:25.543Z,77.10
2023-02-16T02:31:23.083Z,78.13
2023-02-16T02:34:01.901Z,76.74
2023-02-16T02:36:40.633Z,76.87
2023-02-16T02:39:33.883Z,76.93
2023-02-16T02:42:06.275Z,76.90
2023-02-16T02:44:40.922Z,76.88
2023-02-16T02:47:07.788Z,76.83
2023-02-16T02:49:34.265Z,77.48
2023-02-16T02:52:00.945Z,76.99
2023-02-16T02:54:52.621Z,76.88
2023-02-16T02:57:43.212Z,77.23
2023-02-16T03:00:28.489Z,79.28
2023-02-16T03:03:01.664Z,77.24
2023-02-16T03:05:29.594Z,79.34
2023-02-16T03:08:14.004Z,79.57
2023-02-16T03:11:09.237Z,79.43
2023-02-16T03:14:06.025Z,79.97
2023-02-16T03:16:38.483Z,78.91
2023-02-16T03:19:25.575Z,78.72
2023-02-16T03:22:10.773Z,78.88
2023-02-16T03:24:55.842Z,80.49
2023-02-16T03:27:44.332Z,79.95
2023-02-16T03:30:11.954Z,79.82
2023-02-16T03:32:39.536Z,78.46
2023-02-16T03:35:06.540Z,78.69
2023-02-16T03:37:33.437Z,78.10
2023-02-16T03:40:18.678Z,78.48
2023-02-16T03:42:50.125Z,77.64
2023-02-16T03:45:17.473Z,78.68
2023-02-16T03:47:43.932Z,78.17
2023-02-16T03:50:10.491Z,77.14
2023-02-16T03:52:36.924Z,78.19
2023-02-16T03:55:03.520Z,77.40
2023-02-16T03:57:29.956Z,78.53
2023-02-16T03:59:59.183Z,78.13
2023-02-16T04:02:27.705Z,77.86
2023-02-16T04:04:54.302Z,77.65
2023-02-16T04:07:20.835Z,78.12
2023-02-16T04:09:47.362Z,77.54
2023-02-16T04:12:32.307Z,78.29
2023-02-16T04:14:58.821Z,78.89
2023-02-16T04:17:25.271Z,78.09
2023-02-16T04:19:51.728Z,77.20
2023-02-16T04:22:18.215Z,79.25
2023-02-16T04:24:44.688Z,78.27
2023-02-16T04:27:11.214Z,78.15
2023-02-16T04:29:37.637Z,77.92
2023-02-16T04:32:04.886Z,76.62
2023-02-16T04:34:31.421Z,76.95
2023-02-16T04:36:57.874Z,77.17
2023-02-16T04:39:24.336Z,76.06
2023-02-16T04:41:50.808Z,76.75
2023-02-16T04:44:17.336Z,77.49
2023-02-16T04:46:43.861Z,78.21
2023-02-16T04:49:10.301Z,76.56
2023-02-16T04:51:36.761Z,77.69
2023-02-16T04:54:03.237Z,76.76
2023-02-16T04:56:29.777Z,77.66
2023-02-16T04:58:56.578Z,77.50
2023-02-16T05:01:24.851Z,77.17
2023-02-16T05:03:51.415Z,77.85
2023-02-16T05:06:18.446Z,76.83
2023-02-16T05:08:45.371Z,77.88
2023-02-16T05:11:30.523Z,78.11
2023-02-16T05:14:16.758Z,76.97
2023-02-16T05:16:43.567Z,77.29
2023-02-16T05:19:10.029Z,77.46
2023-02-16T05:21:36.584Z,77.32
2023-02-16T05:24:09.289Z,77.36
2023-02-16T05:26:37.035Z,76.95
2023-02-16T05:29:04.083Z,78.40
2023-02-16T05:31:38.007Z,78.13
2023-02-16T05:34:04.658Z,77.28
2023-02-16T05:36:31.282Z,78.35
2023-02-16T05:38:57.752Z,77.78
2023-02-16T05:41:24.319Z,77.54
2023-02-16T05:43:52.304Z,77.59
2023-02-16T05:46:19.830Z,76.97
2023-02-16T05:48:46.435Z,77.75
2023-02-16T05:51:13.496Z,78.50
2023-02-16T05:53:40.218Z,77.47
2023-02-16T05:56:07.543Z,76.93
2023-02-16T05:58:34.101Z,77.82
2023-02-16T06:01:01.028Z,78.12
2023-02-16T06:03:27.893Z,78.77
2023-02-16T06:06:00.617Z,79.53
2023-02-16T06:08:27.824Z,78.43
2023-02-16T06:10:54.689Z,79.07
2023-02-16T06:13:22.007Z,78.37
2023-02-16T06:15:52.280Z,78.61
2023-02-16T06:18:18.878Z,77.98
2023-02-16T06:20:45.694Z,77.11
2023-02-16T06:23:13.349Z,76.18
2023-02-16T06:25:44.387Z,77.79
2023-02-16T06:28:11.350Z,76.69
2023-02-16T06:30:38.011Z,76.20
2023-02-16T06:33:04.602Z,77.10
2023-02-16T06:35:31.404Z,77.37
2023-02-16T06:37:59.242Z,77.03
2023-02-16T06:40:26.064Z,76.18
2023-02-16T06:42:52.565Z,75.96
2023-02-16T06:45:19.382Z,77.02
2023-02-16T06:47:45.921Z,76.93
2023-02-16T06:50:14.493Z,76.74
2023-02-16T06:52:41.137Z,76.89
2023-02-16T06:55:08.208Z,76.78
2023-02-16T06:57:34.660Z,78.05
2023-02-16T07:00:01.114Z,77.94
2023-02-16T07:02:27.545Z,76.99
2023-02-16T07:04:54.621Z,78.99
2023-02-16T07:07:21.176Z,80.01
2023-02-16T07:09:47.801Z,79.09
2023-02-16T07:12:14.337Z,78.10
2023-02-16T07:14:42.508Z,78.52
2023-02-16T07:17:10.312Z,77.88
2023-02-16T07:19:36.772Z,77.36
2023-02-16T07:22:05.183Z,77.49
2023-02-16T07:24:31.657Z,77.69
2023-02-16T07:26:58.097Z,76.14
2023-02-16T07:29:24.557Z,75.72
2023-02-16T07:31:51.539Z,77.04
2023-02-16T07:34:20.181Z,77.23
2023-02-16T07:36:47.338Z,77.76
2023-02-16T07:39:13.790Z,77.51
2023-02-16T07:41:40.245Z,76.92
2023-02-16T07:44:06.729Z,77.64
2023-02-16T07:46:33.522Z,76.76
2023-02-16T07:49:00.357Z,77.00
2023-02-16T07:51:28.975Z,77.80
2023-02-16T07:53:55.467Z,77.75
2023-02-16T07:56:27.071Z,76.95
2023-02-16T07:58:55.326Z,76.24
2023-02-16T08:01:22.451Z,78.15
2023-02-16T08:03:49.365Z,77.40
2023-02-16T08:06:16.300Z,78.65
2023-02-16T08:08:42.853Z,79.19
2023-02-16T08:11:19.305Z,77.83
2023-02-16T08:13:46.125Z,78.09
2023-02-16T08:16:18.841Z,78.43
2023-02-16T08:18:45.534Z,76.52
2023-02-16T08:21:18.104Z,76.29
2023-02-16T08:23:56.348Z,78.37
2023-02-16T08:26:24.417Z,77.00
2023-02-16T08:28:51.720Z,77.26
2023-02-16T08:31:23.347Z,77.40
2023-02-16T08:33:50.995Z,78.12
2023-02-16T08:36:19.578Z,77.27
2023-02-16T08:38:50.121Z,77.46
2023-02-16T08:41:18.079Z,77.81
2023-02-16T08:43:44.592Z,78.00
2023-02-16T08:46:11.359Z,76.86
2023-02-16T08:48:39.884Z,77.65
2023-02-16T08:51:07.122Z,79.16
2023-02-16T08:53:35.061Z,76.27
2023-02-16T08:56:03.948Z,77.87
2023-02-16T08:58:31.403Z,77.25
2023-02-16T09:00:58.036Z,77.78
2023-02-16T09:03:25.028Z,77.33
2023-02-16T09:05:55.400Z,78.92
2023-02-16T09:08:21.897Z,77.76
2023-02-16T09:10:48.401Z,77.61
2023-02-16T09:13:15.088Z,78.02
2023-02-16T09:15:43.134Z,78.05
2023-02-16T09:18:14.129Z,77.24
2023-02-16T09:20:44.301Z,77.27
2023-02-16T09:23:12.817Z,77.94
2023-02-16T09:25:40.147Z,75.09
2023-02-16T09:28:06.898Z,77.36
2023-02-16T09:30:34.734Z,77.51
2023-02-16T09:33:01.437Z,77.82
2023-02-16T09:35:27.964Z,76.38
2023-02-16T09:37:54.415Z,76.94
2023-02-16T09:40:21.359Z,78.85
2023-02-16T09:42:58.439Z,76.39
2023-02-16T09:45:26.950Z,77.44
2023-02-16T09:47:55.189Z,79.14
2023-02-16T09:50:52.224Z,78.37
2023-02-16T09:53:40.356Z,77.06
2023-02-16T09:56:25.198Z,80.96
2023-02-16T09:58:57.718Z,79.30
2023-02-16T10:01:34.969Z,79.06
2023-02-16T10:04:20.222Z,79.66
2023-02-16T10:06:58.451Z,81.08
2023-02-16T10:09:27.831Z,79.94
2023-02-16T10:12:12.966Z,78.04
2023-02-16T10:14:56.638Z,78.31
2023-02-16T10:17:37.866Z,79.94
2023-02-16T10:20:16.935Z,79.52
2023-02-16T10:22:53.285Z,79.43
2023-02-16T10:25:37.333Z,79.73
2023-02-16T10:28:22.659Z,79.62
2023-02-16T10:30:55.070Z,79.06
2023-02-16T10:33:33.887Z,79.04
2023-02-16T10:36:04.296Z,80.17
2023-02-16T10:38:40.499Z,79.08
2023-02-16T10:41:28.916Z,77.68
2023-02-16T10:44:01.610Z,78.43
2023-02-16T10:46:38.313Z,76.98
2023-02-16T10:49:04.952Z,77.15
2023-02-16T10:51:34.096Z,78.60
2023-02-16T10:54:21.971Z,77.19
2023-02-16T10:56:59.528Z,77.75
2023-02-16T10:59:44.705Z,77.52
2023-02-16T11:02:21.822Z,76.99
2023-02-16T11:04:52.479Z,76.83
2023-02-16T11:07:22.161Z,77.52
2023-02-16T11:09:53.853Z,76.84
2023-02-16T11:12:35.102Z,78.26
2023-02-16T11:15:13.979Z,77.54
2023-02-16T11:17:53.138Z,77.12
2023-02-16T11:20:51.728Z,77.25
2023-02-16T11:23:27.734Z,77.33
2023-02-16T11:26:13.104Z,78.81
2023-02-16T11:28:42.870Z,78.10
2023-02-16T11:31:21.660Z,77.89
2023-02-16T11:34:05.856Z,77.34
2023-02-16T11:36:38.330Z,77.31
2023-02-16T11:39:14.200Z,77.56
2023-02-16T11:41:56.204Z,77.66
2023-02-16T11:44:32.295Z,77.11
2023-02-16T11:47:01.546Z,76.02
2023-02-16T11:49:42.115Z,77.44
2023-02-16T11:52:37.163Z,78.01
2023-02-16T11:55:04.861Z,78.45
2023-02-16T11:57:35.912Z,77.56
2023-02-16T12:00:14.667Z,76.66
2023-02-16T12:03:09.981Z,76.61
2023-02-16T12:05:43.738Z,77.28
2023-02-16T12:08:25.455Z,76.75
2023-02-16T12:11:06.881Z,76.81
2023-02-16T12:13:43.544Z,74.97
2023-02-16T12:16:48.824Z,75.40
2023-02-16T12:19:44.843Z,76.67
2023-02-16T12:22:14.298Z,76.38
2023-02-16T12:24:57.065Z,75.28
2023-02-16T12:27:40.625Z,74.33
2023-02-16T12:30:28.356Z,74.02
2023-02-16T12:33:13.549Z,74.18
2023-02-16T12:35:51.427Z,75.67
2023-02-16T12:38:55.609Z,73.37
2023-02-16T12:41:53.009Z,75.80
2023-02-16T12:44:29.810Z,76.02
2023-02-16T12:47:08.408Z,74.87
2023-02-16T12:49:43.986Z,75.21
2023-02-16T12:52:18.890Z,75.81
2023-02-16T12:54:49.664Z,74.54
2023-02-16T12:57:20.635Z,75.74
2023-02-16T12:59:55.460Z,75.21
2023-02-16T13:02:43.121Z,76.92
2023-02-16T13:05:21.313Z,75.09
2023-02-16T13:07:52.501Z,75.79
2023-02-16T13:10:39.266Z,77.51
2023-02-16T13:13:12.457Z,75.84
2023-02-16T13:16:17.440Z,73.39
2023-02-16T13:18:56.308Z,74.34
2023-02-16T13:21:51.579Z,74.71
2023-02-16T13:24:40.281Z,75.64
2023-02-16T13:27:22.152Z,75.25
2023-02-16T13:29:54.689Z,75.65
2023-02-16T13:32:46.657Z,76.27
2023-02-16T13:35:25.813Z,76.81
2023-02-16T13:38:10.999Z,76.21
2023-02-16T13:40:51.369Z,74.49
2023-02-16T13:43:26.763Z,74.41
2023-02-16T13:45:54.602Z,73.94
2023-02-16T13:48:29.255Z,73.70
2023-02-16T13:51:05.262Z,74.48
2023-02-16T13:53:40.101Z,74.63
2023-02-16T13:56:29.931Z,73.96
2023-02-16T13:59:19.658Z,74.46
2023-02-16T14:01:47.571Z,74.68
2023-02-16T14:04:23.198Z,74.20
2023-02-16T14:07:13.419Z,73.94
2023-02-16T14:09:39.919Z,74.86
2023-02-16T14:12:09.520Z,75.95
2023-02-16T14:14:42.054Z,76.84
2023-02-16T14:17:14.867Z,75.78
2023-02-16T14:20:00.693Z,76.40
2023-02-16T14:22:45.682Z,76.42
2023-02-16T14:25:24.476Z,75.18
2023-02-16T14:27:51.596Z,75.22
2023-02-16T14:30:27.915Z,75.14
2023-02-16T14:33:27.730Z,74.87
2023-02-16T14:36:00.471Z,76.56
2023-02-16T14:38:40.211Z,75.31
2023-02-16T14:41:13.879Z,75.20
2023-02-16T14:43:45.769Z,76.90
2023-02-16T14:46:18.271Z,74.03
2023-02-16T14:49:22.486Z,75.70
2023-02-16T14:51:57.944Z,74.02
2023-02-16T14:54:43.245Z,76.34
2023-02-16T14:57:24.368Z,76.16
2023-02-16T15:00:02.165Z,76.10
2023-02-16T15:02:30.204Z,77.23
2023-02-16T15:04:57.295Z,76.35
2023-02-16T15:07:25.648Z,78.15
2023-02-16T15:09:57.371Z,76.48
2023-02-16T15:12:29.992Z,76.75
2023-02-16T15:15:07.557Z,79.03
2023-02-16T15:17:38.082Z,77.99
2023-02-16T15:20:21.723Z,79.26
2023-02-16T15:22:57.017Z,77.47
2023-02-16T15:25:27.771Z,77.13
2023-02-16T15:28:14.855Z,76.26
2023-02-16T15:30:53.179Z,77.69
2023-02-16T15:33:23.873Z,77.05
2023-02-16T15:35:57.216Z,76.80
2023-02-16T15:38:34.752Z,77.96
2023-02-16T15:41:04.489Z,75.66
2023-02-16T15:43:43.805Z,76.56
2023-02-16T15:46:23.907Z,77.68
2023-02-16T15:48:50.945Z,78.62
2023-02-16T15:51:33.386Z,78.75
2023-02-16T15:54:01.191Z,79.25
2023-02-16T15:56:45.534Z,79.30
2023-02-16T15:59:35.346Z,79.14
2023-02-16T16:02:21.870Z,78.75
2023-02-16T16:05:01.094Z,78.93
2023-02-16T16:07:32.128Z,79.04
2023-02-16T16:10:00.120Z,79.08
2023-02-16T16:12:27.126Z,78.53
2023-02-16T16:14:56.391Z,79.25
2023-02-16T16:17:29.776Z,79.17
2023-02-16T16:19:58.165Z,78.36
2023-02-16T16:22:39.724Z,81.08
2023-02-16T16:25:30.402Z,80.56
2023-02-16T16:27:57.253Z,80.21
2023-02-16T16:30:23.728Z,80.43
2023-02-16T16:33:07.711Z,78.42
2023-02-16T16:35:46.441Z,78.67
2023-02-16T16:38:28.234Z,80.25
2023-02-16T16:40:57.859Z,78.50
2023-02-16T16:43:32.925Z,78.75
2023-02-16T16:46:19.266Z,80.33
2023-02-16T16:48:47.659Z,80.58
2023-02-16T16:51:36.487Z,79.80
2023-02-16T16:54:05.578Z,78.85
2023-02-16T16:56:36.830Z,80.77
2023-02-16T16:59:04.220Z,80.83
2023-02-16T17:01:31.105Z,81.04
2023-02-16T17:03:58.177Z,82.56
2023-02-16T17:06:25.320Z,79.86
2023-02-16T17:08:51.969Z,80.30
2023-02-16T17:11:34.241Z,79.77
2023-02-16T17:14:08.492Z,79.95
2023-02-16T17:16:38.520Z,80.50
2023-02-16T17:19:05.064Z,80.06
2023-02-16T17:21:31.527Z,79.93
2023-02-16T17:23:57.972Z,80.49
2023-02-16T17:26:24.529Z,80.18
2023-02-16T17:28:51.145Z,79.65
2023-02-16T17:31:17.718Z,78.94
2023-02-16T17:33:44.875Z,79.36
2023-02-16T17:36:13.871Z,78.50
2023-02-16T17:38:40.404Z,79.86
2023-02-16T17:41:06.926Z,79.33
2023-02-16T17:43:33.377Z,79.72
2023-02-16T17:46:04.700Z,81.72
2023-02-16T17:48:31.443Z,81.28
2023-02-16T17:50:58.280Z,78.84
2023-02-16T17:53:25.903Z,77.69
2023-02-16T17:55:54.572Z,78.49
2023-02-16T17:58:22.332Z,77.63
2023-02-16T18:00:48.972Z,78.81
2023-02-16T18:03:15.601Z,80.42
2023-02-16T18:05:42.099Z,80.17
2023-02-16T18:08:08.662Z,80.32
2023-02-16T18:10:46.549Z,80.45
2023-02-16T18:13:13.815Z,78.63
2023-02-16T18:15:42.767Z,78.91
2023-02-16T18:18:09.362Z,80.90
2023-02-16T18:20:36.023Z,81.26
2023-02-16T18:23:02.691Z,80.92
2023-02-16T18:25:30.880Z,81.34
2023-02-16T18:27:57.651Z,82.44
2023-02-16T18:30:24.482Z,80.35
2023-02-16T18:32:51.932Z,80.63
2023-02-16T18:35:19.878Z,79.11
2023-02-16T18:37:47.521Z,80.70
2023-02-16T18:40:17.761Z,81.63
2023-02-16T18:42:45.530Z,80.27
2023-02-16T18:45:12.880Z,80.41
2023-02-16T18:47:42.884Z,82.08
2023-02-16T18:50:09.965Z,82.53
2023-02-16T18:52:37.121Z,82.53
2023-02-16T18:55:03.963Z,82.27
2023-02-16T18:57:33.715Z,83.82
2023-02-16T19:00:01.126Z,83.52
2023-02-16T19:02:28.144Z,83.37
2023-02-16T19:04:58.787Z,84.96
2023-02-16T19:07:33.226Z,83.13
2023-02-16T19:10:03.672Z,81.37
2023-02-16T19:12:33.876Z,82.63
2023-02-16T19:15:00.647Z,82.58
2023-02-16T19:17:30.528Z,82.04
2023-02-16T19:19:57.521Z,82.72
2023-02-16T19:22:24.822Z,81.74
2023-02-16T19:24:54.116Z,82.04
2023-02-16T19:27:21.061Z,83.51
2023-02-16T19:29:51.062Z,82.54
2023-02-16T19:32:21.073Z,82.60
2023-02-16T19:34:54.145Z,82.70
2023-02-16T19:37:24.372Z,81.92
2023-02-16T19:39:54.270Z,84.61
2023-02-16T19:42:21.991Z,81.72
2023-02-16T19:45:00.242Z,80.20
2023-02-16T19:47:27.520Z,82.49
2023-02-16T19:49:54.909Z,85.21
2023-02-16T19:52:27.776Z,82.19
2023-02-16T19:54:55.402Z,82.78
2023-02-16T19:57:21.913Z,82.78
2023-02-16T19:59:48.347Z,82.88
2023-02-16T20:02:15.594Z,80.60
2023-02-16T20:04:42.953Z,83.98
2023-02-16T20:07:09.835Z,82.55
2023-02-16T20:09:37.361Z,84.13
2023-02-16T20:12:04.733Z,82.33
2023-02-16T20:14:31.306Z,82.18
2023-02-16T20:16:57.742Z,83.72
2023-02-16T20:19:24.241Z,84.78
2023-02-16T20:21:51.348Z,83.21
2023-02-16T20:24:18.819Z,84.53
2023-02-16T20:26:47.134Z,84.47
2023-02-16T20:29:17.917Z,86.52
2023-02-16T20:31:53.441Z,84.89
2023-02-16T20:34:21.503Z,86.08
2023-02-16T20:36:48.088Z,85.70
2023-02-16T20:39:15.139Z,84.78
2023-02-16T20:41:41.701Z,83.45
2023-02-16T20:44:08.251Z,84.44
2023-02-16T20:46:34.723Z,84.16
2023-02-16T20:49:01.268Z,83.61
2023-02-16T20:51:27.948Z,83.73
2023-02-16T20:53:54.430Z,84.50
2023-02-16T20:56:23.483Z,84.82
2023-02-16T20:58:51.332Z,85.56
2023-02-16T21:01:20.774Z,84.54
2023-02-16T21:03:47.406Z,83.40
2023-02-16T21:06:15.043Z,81.73
2023-02-16T21:08:41.728Z,81.57
2023-02-16T21:11:08.333Z,83.20
2023-02-16T21:13:38.712Z,83.06
2023-02-16T21:16:06.144Z,86.72
2023-02-16T21:18:33.392Z,83.49
2023-02-16T21:21:01.031Z,84.80
2023-02-16T21:23:28.110Z,86.21
2023-02-16T21:26:03.269Z,87.71
2023-02-16T21:28:30.018Z,86.45
2023-02-16T21:30:56.797Z,86.20
2023-02-16T21:33:23.337Z,87.24
2023-02-16T21:35:49.837Z,88.47
2023-02-16T21:38:17.801Z,87.86
2023-02-16T21:41:02.856Z,85.83
2023-02-16T21:43:31.457Z,86.93
2023-02-16T21:45:59.884Z,86.96
2023-02-16T21:48:44.950Z,86.06
2023-02-16T21:51:15.424Z,84.85
2023-02-16T21:53:41.972Z,85.83
2023-02-16T21:56:26.855Z,87.42
2023-02-16T21:58:53.536Z,86.52
2023-02-16T22:01:22.079Z,86.27
2023-02-16T22:03:48.681Z,87.65
2023-02-16T22:06:15.593Z,86.10
2023-02-16T22:08:42.221Z,86.93
2023-02-16T22:11:11.474Z,87.13
2023-02-16T22:13:38.652Z,85.90
2023-02-16T22:16:10.250Z,85.28
2023-02-16T22:18:37.184Z,85.27
2023-02-16T22:21:04.987Z,86.40
2023-02-16T22:23:31.604Z,87.40
2023-02-16T22:25:59.506Z,87.45
2023-02-16T22:28:27.720Z,88.11
2023-02-16T22:30:58.114Z,86.34
2023-02-16T22:33:24.952Z,88.38
2023-02-16T22:35:51.461Z,87.92
2023-02-16T22:38:20.358Z,87.68
2023-02-16T22:40:48.716Z,86.82
2023-02-16T22:43:16.803Z,86.27
2023-02-16T22:45:43.576Z,88.36
2023-02-16T22:48:10.069Z,87.36
2023-02-16T22:50:36.534Z,85.39
2023-02-16T22:53:05.076Z,85.54
2023-02-16T22:55:31.545Z,86.28
2023-02-16T22:57:57.984Z,87.38
2023-02-16T23:00:24.543Z,88.04
2023-02-16T23:02:51.012Z,87.96
2023-02-16T23:05:17.632Z,88.21
2023-02-16T23:07:44.102Z,87.75
2023-02-16T23:10:10.778Z,89.46
2023-02-16T23:12:37.309Z,89.56
2023-02-16T23:15:04.032Z,88.18
2023-02-16T23:17:30.510Z,89.53
2023-02-16T23:19:57.030Z,89.34
2023-02-16T23:22:23.503Z,87.28
2023-02-16T23:25:09.979Z,85.74
2023-02-16T23:27:36.512Z,86.77
2023-02-16T23:30:03.629Z,87.07
2023-02-16T23:32:30.130Z,86.90
2023-02-16T23:34:56.656Z,87.06
2023-02-16T23:37:23.117Z,88.00
2023-02-16T23:39:49.617Z,88.63
2023-02-16T23:42:16.106Z,88.69
2023-02-16T23:44:42.603Z,86.98
2023-02-16T23:47:09.100Z,85.25
2023-02-16T23:49:35.644Z,86.29
2023-02-16T23:52:02.120Z,86.92
2023-02-16T23:54:28.645Z,85.38
2023-02-16T23:56:55.115Z,87.73
2023-02-16T23:59:21.658Z,88.73
